sensor_id;sensor_type;location;lat;lon;timestamp;P1;durP1;ratioP1;P2;durP2;ratioP2
75488;SDS011;64069;46.396;48.102;2024-03-23T00:54:48;9.73;;;3.75;;
75488;SDS011;64069;46.396;48.102;2024-03-23T00:57:14;12.55;;;4.63;;
75488;SDS011;64069;46.396;48.102;2024-03-23T00:59:40;11.10;;;3.33;;
75488;SDS011;64069;46.396;48.102;2024-03-23T01:02:06;11.63;;;4.20;;
75488;SDS011;64069;46.396;48.102;2024-03-23T01:04:32;10.18;;;3.95;;
75488;SDS011;64069;46.396;48.102;2024-03-23T01:06:58;13.27;;;3.97;;
75488;SDS011;64069;46.396;48.102;2024-03-23T01:09:27;13.23;;;4.45;;
75488;SDS011;64069;46.396;48.102;2024-03-23T01:11:52;9.02;;;3.15;;
75488;SDS011;64069;46.396;48.102;2024-03-23T01:14:19;18.23;;;4.20;;
75488;SDS011;64069;46.396;48.102;2024-03-23T01:16:44;9.52;;;4.45;;
75488;SDS011;64069;46.396;48.102;2024-03-23T01:19:10;13.45;;;5.00;;
75488;SDS011;64069;46.396;48.102;2024-03-23T01:21:36;18.60;;;5.18;;
75488;SDS011;64069;46.396;48.102;2024-03-23T01:24:02;10.52;;;3.70;;
75488;SDS011;64069;46.396;48.102;2024-03-23T01:26:28;16.23;;;5.38;;
75488;SDS011;64069;46.396;48.102;2024-03-23T01:28:54;17.30;;;4.85;;
75488;SDS011;64069;46.396;48.102;2024-03-23T01:31:20;16.17;;;4.60;;
75488;SDS011;64069;46.396;48.102;2024-03-23T01:33:46;9.30;;;4.05;;
75488;SDS011;64069;46.396;48.102;2024-03-23T01:36:12;11.32;;;3.75;;
75488;SDS011;64069;46.396;48.102;2024-03-23T01:38:38;9.73;;;3.20;;
75488;SDS011;64069;46.396;48.102;2024-03-23T01:41:04;13.13;;;3.47;;
75488;SDS011;64069;46.396;48.102;2024-03-23T01:43:30;9.55;;;3.13;;
75488;SDS011;64069;46.396;48.102;2024-03-23T01:45:56;10.00;;;3.22;;
75488;SDS011;64069;46.396;48.102;2024-03-23T01:48:22;11.23;;;3.65;;
75488;SDS011;64069;46.396;48.102;2024-03-23T01:50:49;8.93;;;3.28;;
75488;SDS011;64069;46.396;48.102;2024-03-23T01:53:15;9.52;;;3.40;;
75488;SDS011;64069;46.396;48.102;2024-03-23T01:55:43;8.93;;;3.40;;
75488;SDS011;64069;46.396;48.102;2024-03-23T01:58:09;12.10;;;3.75;;
75488;SDS011;64069;46.396;48.102;2024-03-23T02:00:35;7.90;;;3.30;;
75488;SDS011;64069;46.396;48.102;2024-03-23T02:03:02;9.02;;;3.28;;
75488;SDS011;64069;46.396;48.102;2024-03-23T02:05:28;7.78;;;3.47;;
75488;SDS011;64069;46.396;48.102;2024-03-23T02:07:54;14.60;;;3.92;;
75488;SDS011;64069;46.396;48.102;2024-03-23T02:10:20;12.40;;;3.90;;
75488;SDS011;64069;46.396;48.102;2024-03-23T02:12:46;12.80;;;4.63;;
75488;SDS011;64069;46.396;48.102;2024-03-23T02:15:12;12.20;;;4.40;;
75488;SDS011;64069;46.396;48.102;2024-03-23T02:17:38;11.00;;;3.70;;
75488;SDS011;64069;46.396;48.102;2024-03-23T02:20:04;10.45;;;3.92;;
75488;SDS011;64069;46.396;48.102;2024-03-23T02:22:38;9.70;;;3.10;;
75488;SDS011;64069;46.396;48.102;2024-03-23T02:25:04;8.95;;;3.20;;
75488;SDS011;64069;46.396;48.102;2024-03-23T02:27:31;9.00;;;3.50;;
75488;SDS011;64069;46.396;48.102;2024-03-23T02:29:57;9.05;;;3.40;;
75488;SDS011;64069;46.396;48.102;2024-03-23T02:32:23;11.07;;;3.40;;
75488;SDS011;64069;46.396;48.102;2024-03-23T02:34:49;9.82;;;4.20;;
75488;SDS011;64069;46.396;48.102;2024-03-23T02:37:15;10.27;;;3.78;;
75488;SDS011;64069;46.396;48.102;2024-03-23T02:39:41;13.75;;;4.38;;
75488;SDS011;64069;46.396;48.102;2024-03-23T02:42:06;11.02;;;4.05;;
75488;SDS011;64069;46.396;48.102;2024-03-23T02:44:33;12.60;;;5.35;;
75488;SDS011;64069;46.396;48.102;2024-03-23T02:46:58;11.35;;;5.15;;
75488;SDS011;64069;46.396;48.102;2024-03-23T02:49:25;21.25;;;6.30;;
75488;SDS011;64069;46.396;48.102;2024-03-23T02:51:52;16.90;;;5.25;;
75488;SDS011;64069;46.396;48.102;2024-03-23T02:54:18;11.05;;;4.35;;
75488;SDS011;64069;46.396;48.102;2024-03-23T02:56:44;10.30;;;3.88;;
75488;SDS011;64069;46.396;48.102;2024-03-23T02:59:10;14.93;;;5.13;;
75488;SDS011;64069;46.396;48.102;2024-03-23T03:01:36;10.82;;;4.65;;
75488;SDS011;64069;46.396;48.102;2024-03-23T03:04:02;10.60;;;4.10;;
75488;SDS011;64069;46.396;48.102;2024-03-23T03:06:29;12.98;;;4.50;;
75488;SDS011;64069;46.396;48.102;2024-03-23T03:08:55;14.23;;;5.90;;
75488;SDS011;64069;46.396;48.102;2024-03-23T03:11:21;15.65;;;4.72;;
75488;SDS011;64069;46.396;48.102;2024-03-23T03:13:47;13.07;;;5.07;;
75488;SDS011;64069;46.396;48.102;2024-03-23T03:16:13;16.95;;;4.88;;
75488;SDS011;64069;46.396;48.102;2024-03-23T03:18:39;11.25;;;4.97;;
75488;SDS011;64069;46.396;48.102;2024-03-23T03:21:05;16.33;;;6.00;;
75488;SDS011;64069;46.396;48.102;2024-03-23T03:23:38;18.88;;;5.82;;
75488;SDS011;64069;46.396;48.102;2024-03-23T03:26:05;11.00;;;4.22;;
75488;SDS011;64069;46.396;48.102;2024-03-23T03:28:32;15.10;;;4.25;;
75488;SDS011;64069;46.396;48.102;2024-03-23T03:31:01;17.95;;;4.95;;
75488;SDS011;64069;46.396;48.102;2024-03-23T03:33:27;10.60;;;4.10;;
75488;SDS011;64069;46.396;48.102;2024-03-23T03:35:53;12.32;;;4.25;;
75488;SDS011;64069;46.396;48.102;2024-03-23T03:38:20;13.50;;;5.05;;
75488;SDS011;64069;46.396;48.102;2024-03-23T03:40:46;16.17;;;5.25;;
75488;SDS011;64069;46.396;48.102;2024-03-23T03:43:12;25.35;;;8.75;;
75488;SDS011;64069;46.396;48.102;2024-03-23T03:45:38;24.67;;;8.80;;
75488;SDS011;64069;46.396;48.102;2024-03-23T03:48:05;26.58;;;8.80;;
75488;SDS011;64069;46.396;48.102;2024-03-23T03:50:31;23.67;;;7.63;;
75488;SDS011;64069;46.396;48.102;2024-03-23T03:52:57;15.45;;;5.68;;
75488;SDS011;64069;46.396;48.102;2024-03-23T03:55:23;19.27;;;5.93;;
75488;SDS011;64069;46.396;48.102;2024-03-23T03:57:49;14.45;;;4.93;;
75488;SDS011;64069;46.396;48.102;2024-03-23T04:00:15;12.18;;;4.82;;
75488;SDS011;64069;46.396;48.102;2024-03-23T04:02:41;14.32;;;4.78;;
75488;SDS011;64069;46.396;48.102;2024-03-23T04:05:07;14.48;;;4.40;;
75488;SDS011;64069;46.396;48.102;2024-03-23T04:07:33;13.05;;;5.13;;
75488;SDS011;64069;46.396;48.102;2024-03-23T04:09:59;12.15;;;4.60;;
75488;SDS011;64069;46.396;48.102;2024-03-23T04:12:26;11.73;;;4.95;;
75488;SDS011;64069;46.396;48.102;2024-03-23T04:14:52;11.13;;;3.58;;
75488;SDS011;64069;46.396;48.102;2024-03-23T04:17:18;11.68;;;4.40;;
75488;SDS011;64069;46.396;48.102;2024-03-23T04:19:45;13.57;;;4.65;;
75488;SDS011;64069;46.396;48.102;2024-03-23T04:22:11;13.27;;;4.22;;
75488;SDS011;64069;46.396;48.102;2024-03-23T04:24:37;12.82;;;4.60;;
75488;SDS011;64069;46.396;48.102;2024-03-23T04:27:03;14.05;;;4.22;;
75488;SDS011;64069;46.396;48.102;2024-03-23T04:29:29;22.42;;;5.55;;
75488;SDS011;64069;46.396;48.102;2024-03-23T04:31:55;14.18;;;5.68;;
75488;SDS011;64069;46.396;48.102;2024-03-23T04:34:21;13.45;;;4.88;;
75488;SDS011;64069;46.396;48.102;2024-03-23T04:36:48;12.05;;;4.38;;
75488;SDS011;64069;46.396;48.102;2024-03-23T04:39:14;14.73;;;5.10;;
75488;SDS011;64069;46.396;48.102;2024-03-23T04:41:40;13.77;;;5.10;;
75488;SDS011;64069;46.396;48.102;2024-03-23T04:44:06;11.32;;;4.40;;
75488;SDS011;64069;46.396;48.102;2024-03-23T04:46:32;22.00;;;5.38;;
75488;SDS011;64069;46.396;48.102;2024-03-23T04:48:58;14.55;;;4.75;;
75488;SDS011;64069;46.396;48.102;2024-03-23T04:51:25;13.18;;;4.07;;
75488;SDS011;64069;46.396;48.102;2024-03-23T04:53:51;15.38;;;4.70;;
75488;SDS011;64069;46.396;48.102;2024-03-23T04:56:17;14.75;;;4.72;;
75488;SDS011;64069;46.396;48.102;2024-03-23T04:58:44;17.00;;;4.80;;
75488;SDS011;64069;46.396;48.102;2024-03-23T05:01:10;18.75;;;5.68;;
75488;SDS011;64069;46.396;48.102;2024-03-23T05:03:37;15.40;;;5.65;;
75488;SDS011;64069;46.396;48.102;2024-03-23T05:06:03;15.50;;;4.60;;
75488;SDS011;64069;46.396;48.102;2024-03-23T05:08:30;16.33;;;4.95;;
75488;SDS011;64069;46.396;48.102;2024-03-23T05:10:57;19.38;;;6.03;;
75488;SDS011;64069;46.396;48.102;2024-03-23T05:13:23;16.40;;;5.28;;
75488;SDS011;64069;46.396;48.102;2024-03-23T05:15:55;15.10;;;5.82;;
75488;SDS011;64069;46.396;48.102;2024-03-23T05:18:21;18.60;;;6.03;;
75488;SDS011;64069;46.396;48.102;2024-03-23T05:20:47;14.00;;;5.30;;
75488;SDS011;64069;46.396;48.102;2024-03-23T05:23:13;19.65;;;7.10;;
75488;SDS011;64069;46.396;48.102;2024-03-23T05:25:40;22.08;;;7.10;;
75488;SDS011;64069;46.396;48.102;2024-03-23T05:28:06;18.13;;;6.57;;
75488;SDS011;64069;46.396;48.102;2024-03-23T05:30:32;16.52;;;5.85;;
75488;SDS011;64069;46.396;48.102;2024-03-23T05:32:58;13.05;;;5.28;;
75488;SDS011;64069;46.396;48.102;2024-03-23T05:35:24;15.90;;;6.20;;
75488;SDS011;64069;46.396;48.102;2024-03-23T05:37:50;15.98;;;6.35;;
75488;SDS011;64069;46.396;48.102;2024-03-23T05:40:16;22.75;;;6.43;;
75488;SDS011;64069;46.396;48.102;2024-03-23T05:42:42;17.55;;;6.30;;
75488;SDS011;64069;46.396;48.102;2024-03-23T05:45:08;16.95;;;6.03;;
75488;SDS011;64069;46.396;48.102;2024-03-23T05:47:34;22.05;;;6.38;;
75488;SDS011;64069;46.396;48.102;2024-03-23T05:50:00;18.23;;;6.38;;
75488;SDS011;64069;46.396;48.102;2024-03-23T05:52:27;17.73;;;6.28;;
75488;SDS011;64069;46.396;48.102;2024-03-23T05:54:53;23.75;;;6.80;;
75488;SDS011;64069;46.396;48.102;2024-03-23T05:57:19;15.93;;;6.18;;
75488;SDS011;64069;46.396;48.102;2024-03-23T05:59:45;15.80;;;6.13;;
75488;SDS011;64069;46.396;48.102;2024-03-23T06:02:11;20.00;;;5.82;;
75488;SDS011;64069;46.396;48.102;2024-03-23T06:04:37;15.85;;;6.30;;
75488;SDS011;64069;46.396;48.102;2024-03-23T06:07:04;16.60;;;6.10;;
75488;SDS011;64069;46.396;48.102;2024-03-23T06:09:39;19.75;;;5.88;;
75488;SDS011;64069;46.396;48.102;2024-03-23T06:12:05;20.95;;;6.32;;
75488;SDS011;64069;46.396;48.102;2024-03-23T06:14:32;22.98;;;6.43;;
75488;SDS011;64069;46.396;48.102;2024-03-23T06:16:58;15.45;;;6.32;;
75488;SDS011;64069;46.396;48.102;2024-03-23T06:19:25;20.85;;;6.65;;
75488;SDS011;64069;46.396;48.102;2024-03-23T06:21:54;21.13;;;7.18;;
75488;SDS011;64069;46.396;48.102;2024-03-23T06:24:21;20.23;;;6.95;;
75488;SDS011;64069;46.396;48.102;2024-03-23T06:26:47;20.83;;;7.78;;
75488;SDS011;64069;46.396;48.102;2024-03-23T06:29:13;18.85;;;6.97;;
75488;SDS011;64069;46.396;48.102;2024-03-23T06:31:39;27.80;;;8.00;;
75488;SDS011;64069;46.396;48.102;2024-03-23T06:34:05;28.30;;;8.38;;
75488;SDS011;64069;46.396;48.102;2024-03-23T06:36:31;24.15;;;8.00;;
75488;SDS011;64069;46.396;48.102;2024-03-23T06:38:58;19.83;;;7.75;;
75488;SDS011;64069;46.396;48.102;2024-03-23T06:41:24;22.23;;;6.80;;
75488;SDS011;64069;46.396;48.102;2024-03-23T06:43:51;18.02;;;6.20;;
75488;SDS011;64069;46.396;48.102;2024-03-23T06:46:17;22.00;;;7.85;;
75488;SDS011;64069;46.396;48.102;2024-03-23T06:48:44;24.23;;;6.78;;
75488;SDS011;64069;46.396;48.102;2024-03-23T06:51:11;19.90;;;6.95;;
75488;SDS011;64069;46.396;48.102;2024-03-23T06:53:37;22.73;;;6.70;;
75488;SDS011;64069;46.396;48.102;2024-03-23T06:56:03;17.95;;;7.25;;
75488;SDS011;64069;46.396;48.102;2024-03-23T06:58:29;19.02;;;7.22;;
75488;SDS011;64069;46.396;48.102;2024-03-23T07:00:55;20.83;;;7.15;;
75488;SDS011;64069;46.396;48.102;2024-03-23T07:03:21;15.80;;;6.60;;
75488;SDS011;64069;46.396;48.102;2024-03-23T07:05:47;17.13;;;6.28;;
75488;SDS011;64069;46.396;48.102;2024-03-23T07:08:13;13.70;;;5.88;;
75488;SDS011;64069;46.396;48.102;2024-03-23T07:10:44;19.52;;;6.57;;
75488;SDS011;64069;46.396;48.102;2024-03-23T07:13:09;13.93;;;6.13;;
75488;SDS011;64069;46.396;48.102;2024-03-23T07:15:35;22.85;;;6.25;;
75488;SDS011;64069;46.396;48.102;2024-03-23T07:18:02;16.77;;;6.18;;
75488;SDS011;64069;46.396;48.102;2024-03-23T07:20:29;16.75;;;6.15;;
75488;SDS011;64069;46.396;48.102;2024-03-23T07:22:56;20.33;;;6.10;;
75488;SDS011;64069;46.396;48.102;2024-03-23T07:25:24;23.70;;;6.38;;
75488;SDS011;64069;46.396;48.102;2024-03-23T07:27:51;18.35;;;6.18;;
75488;SDS011;64069;46.396;48.102;2024-03-23T07:30:18;14.48;;;5.88;;
75488;SDS011;64069;46.396;48.102;2024-03-23T07:32:44;20.58;;;6.57;;
75488;SDS011;64069;46.396;48.102;2024-03-23T07:35:11;18.08;;;6.80;;
75488;SDS011;64069;46.396;48.102;2024-03-23T07:37:37;19.35;;;6.53;;
75488;SDS011;64069;46.396;48.102;2024-03-23T07:40:03;19.95;;;7.53;;
75488;SDS011;64069;46.396;48.102;2024-03-23T07:42:29;24.83;;;7.68;;
75488;SDS011;64069;46.396;48.102;2024-03-23T07:44:55;23.83;;;7.47;;
75488;SDS011;64069;46.396;48.102;2024-03-23T07:47:22;20.98;;;8.48;;
75488;SDS011;64069;46.396;48.102;2024-03-23T07:49:48;17.23;;;7.25;;
75488;SDS011;64069;46.396;48.102;2024-03-23T07:52:14;16.65;;;7.07;;
75488;SDS011;64069;46.396;48.102;2024-03-23T07:54:40;20.30;;;7.47;;
75488;SDS011;64069;46.396;48.102;2024-03-23T07:57:06;20.55;;;7.50;;
75488;SDS011;64069;46.396;48.102;2024-03-23T07:59:32;24.73;;;7.40;;
75488;SDS011;64069;46.396;48.102;2024-03-23T08:01:59;21.10;;;7.55;;
75488;SDS011;64069;46.396;48.102;2024-03-23T08:04:27;19.48;;;7.65;;
75488;SDS011;64069;46.396;48.102;2024-03-23T08:06:53;30.08;;;9.20;;
75488;SDS011;64069;46.396;48.102;2024-03-23T08:09:19;19.92;;;8.38;;
75488;SDS011;64069;46.396;48.102;2024-03-23T08:11:45;20.02;;;8.45;;
75488;SDS011;64069;46.396;48.102;2024-03-23T08:14:12;22.75;;;8.63;;
75488;SDS011;64069;46.396;48.102;2024-03-23T08:16:38;62.08;;;20.55;;
75488;SDS011;64069;46.396;48.102;2024-03-23T08:19:04;20.55;;;7.43;;
75488;SDS011;64069;46.396;48.102;2024-03-23T08:21:30;53.17;;;18.70;;
75488;SDS011;64069;46.396;48.102;2024-03-23T08:23:56;20.52;;;8.63;;
75488;SDS011;64069;46.396;48.102;2024-03-23T08:26:22;44.50;;;13.82;;
75488;SDS011;64069;46.396;48.102;2024-03-23T08:28:48;27.45;;;10.85;;
75488;SDS011;64069;46.396;48.102;2024-03-23T08:31:14;19.65;;;7.95;;
75488;SDS011;64069;46.396;48.102;2024-03-23T08:33:40;30.17;;;10.18;;
75488;SDS011;64069;46.396;48.102;2024-03-23T08:36:08;18.75;;;8.32;;
75488;SDS011;64069;46.396;48.102;2024-03-23T08:38:37;21.80;;;7.57;;
75488;SDS011;64069;46.396;48.102;2024-03-23T08:41:10;33.10;;;11.27;;
75488;SDS011;64069;46.396;48.102;2024-03-23T08:43:40;19.63;;;8.90;;
75488;SDS011;64069;46.396;48.102;2024-03-23T08:46:10;28.17;;;10.57;;
75488;SDS011;64069;46.396;48.102;2024-03-23T08:48:41;50.13;;;18.55;;
75488;SDS011;64069;46.396;48.102;2024-03-23T08:51:09;23.42;;;8.82;;
75488;SDS011;64069;46.396;48.102;2024-03-23T08:53:36;23.30;;;8.38;;
75488;SDS011;64069;46.396;48.102;2024-03-23T08:56:03;27.30;;;9.00;;
75488;SDS011;64069;46.396;48.102;2024-03-23T08:58:31;21.88;;;8.73;;
75488;SDS011;64069;46.396;48.102;2024-03-23T09:01:08;23.02;;;7.97;;
75488;SDS011;64069;46.396;48.102;2024-03-23T09:03:35;20.50;;;9.10;;
75488;SDS011;64069;46.396;48.102;2024-03-23T09:06:02;26.63;;;9.07;;
75488;SDS011;64069;46.396;48.102;2024-03-23T09:08:35;27.80;;;9.57;;
75488;SDS011;64069;46.396;48.102;2024-03-23T09:11:05;23.88;;;9.25;;
75488;SDS011;64069;46.396;48.102;2024-03-23T09:13:35;23.27;;;9.95;;
75488;SDS011;64069;46.396;48.102;2024-03-23T09:16:03;25.23;;;9.05;;
75488;SDS011;64069;46.396;48.102;2024-03-23T09:18:34;26.92;;;9.73;;
75488;SDS011;64069;46.396;48.102;2024-03-23T09:21:02;26.92;;;9.05;;
75488;SDS011;64069;46.396;48.102;2024-03-23T09:23:28;19.25;;;8.45;;
75488;SDS011;64069;46.396;48.102;2024-03-23T09:25:55;26.25;;;9.82;;
75488;SDS011;64069;46.396;48.102;2024-03-23T09:28:21;21.30;;;8.23;;
75488;SDS011;64069;46.396;48.102;2024-03-23T09:30:47;67.93;;;23.73;;
75488;SDS011;64069;46.396;48.102;2024-03-23T09:33:13;25.15;;;9.02;;
75488;SDS011;64069;46.396;48.102;2024-03-23T09:35:40;24.52;;;8.77;;
75488;SDS011;64069;46.396;48.102;2024-03-23T09:38:07;20.52;;;8.05;;
75488;SDS011;64069;46.396;48.102;2024-03-23T09:40:35;24.75;;;8.38;;
75488;SDS011;64069;46.396;48.102;2024-03-23T09:43:11;25.27;;;9.00;;
75488;SDS011;64069;46.396;48.102;2024-03-23T09:45:40;19.70;;;8.30;;
75488;SDS011;64069;46.396;48.102;2024-03-23T09:48:06;22.20;;;8.82;;
75488;SDS011;64069;46.396;48.102;2024-03-23T09:50:40;25.15;;;10.32;;
75488;SDS011;64069;46.396;48.102;2024-03-23T09:53:07;90.53;;;34.13;;
75488;SDS011;64069;46.396;48.102;2024-03-23T09:55:36;39.90;;;14.00;;
75488;SDS011;64069;46.396;48.102;2024-03-23T09:58:03;21.63;;;7.85;;
75488;SDS011;64069;46.396;48.102;2024-03-23T10:00:36;21.02;;;8.52;;
75488;SDS011;64069;46.396;48.102;2024-03-23T10:03:02;21.80;;;8.23;;
75488;SDS011;64069;46.396;48.102;2024-03-23T10:05:28;27.67;;;9.32;;
75488;SDS011;64069;46.396;48.102;2024-03-23T10:07:56;20.80;;;8.13;;
75488;SDS011;64069;46.396;48.102;2024-03-23T10:10:24;22.35;;;8.43;;
75488;SDS011;64069;46.396;48.102;2024-03-23T10:12:50;19.48;;;7.85;;
75488;SDS011;64069;46.396;48.102;2024-03-23T10:15:24;20.90;;;8.93;;
75488;SDS011;64069;46.396;48.102;2024-03-23T10:17:51;24.23;;;9.25;;
75488;SDS011;64069;46.396;48.102;2024-03-23T10:20:20;34.00;;;11.82;;
75488;SDS011;64069;46.396;48.102;2024-03-23T10:22:50;20.42;;;8.57;;
75488;SDS011;64069;46.396;48.102;2024-03-23T10:25:22;76.57;;;25.17;;
75488;SDS011;64069;46.396;48.102;2024-03-23T10:27:58;15.52;;;6.97;;
75488;SDS011;64069;46.396;48.102;2024-03-23T10:30:25;21.05;;;8.05;;
75488;SDS011;64069;46.396;48.102;2024-03-23T10:33:08;20.13;;;7.70;;
75488;SDS011;64069;46.396;48.102;2024-03-23T10:35:36;19.45;;;8.60;;
75488;SDS011;64069;46.396;48.102;2024-03-23T10:38:04;26.27;;;10.65;;
75488;SDS011;64069;46.396;48.102;2024-03-23T10:40:34;20.40;;;8.43;;
75488;SDS011;64069;46.396;48.102;2024-03-23T10:43:00;20.50;;;8.18;;
75488;SDS011;64069;46.396;48.102;2024-03-23T10:45:29;15.05;;;7.35;;
75488;SDS011;64069;46.396;48.102;2024-03-23T10:47:55;19.80;;;7.95;;
75488;SDS011;64069;46.396;48.102;2024-03-23T10:50:22;17.08;;;7.03;;
75488;SDS011;64069;46.396;48.102;2024-03-23T10:52:48;15.50;;;6.40;;
75488;SDS011;64069;46.396;48.102;2024-03-23T10:55:18;20.00;;;7.32;;
75488;SDS011;64069;46.396;48.102;2024-03-23T10:57:55;17.48;;;6.65;;
75488;SDS011;64069;46.396;48.102;2024-03-23T11:00:24;15.15;;;6.43;;
75488;SDS011;64069;46.396;48.102;2024-03-23T11:02:50;17.38;;;7.93;;
75488;SDS011;64069;46.396;48.102;2024-03-23T11:07:52;17.77;;;6.55;;
75488;SDS011;64069;46.396;48.102;2024-03-23T11:12:59;16.70;;;7.00;;
75488;SDS011;64069;46.396;48.102;2024-03-23T11:15:47;19.45;;;7.45;;
75488;SDS011;64069;46.396;48.102;2024-03-23T11:18:13;20.35;;;7.70;;
75488;SDS011;64069;46.396;48.102;2024-03-23T11:20:46;30.38;;;13.75;;
75488;SDS011;64069;46.396;48.102;2024-03-23T11:23:27;23.27;;;8.52;;
75488;SDS011;64069;46.396;48.102;2024-03-23T11:25:54;22.88;;;8.32;;
75488;SDS011;64069;46.396;48.102;2024-03-23T11:28:20;22.95;;;8.02;;
75488;SDS011;64069;46.396;48.102;2024-03-23T11:30:47;16.92;;;6.97;;
75488;SDS011;64069;46.396;48.102;2024-03-23T11:33:13;19.30;;;7.88;;
75488;SDS011;64069;46.396;48.102;2024-03-23T11:35:41;16.52;;;7.28;;
75488;SDS011;64069;46.396;48.102;2024-03-23T11:38:10;17.65;;;7.32;;
75488;SDS011;64069;46.396;48.102;2024-03-23T11:40:38;21.97;;;7.70;;
75488;SDS011;64069;46.396;48.102;2024-03-23T11:43:09;22.17;;;8.25;;
75488;SDS011;64069;46.396;48.102;2024-03-23T11:48:13;16.67;;;7.32;;
75488;SDS011;64069;46.396;48.102;2024-03-23T11:50:41;17.73;;;7.65;;
75488;SDS011;64069;46.396;48.102;2024-03-23T11:53:12;23.52;;;8.75;;
75488;SDS011;64069;46.396;48.102;2024-03-23T11:55:41;19.38;;;6.93;;
75488;SDS011;64069;46.396;48.102;2024-03-23T11:58:27;16.70;;;7.93;;
75488;SDS011;64069;46.396;48.102;2024-03-23T12:00:57;22.70;;;8.20;;
75488;SDS011;64069;46.396;48.102;2024-03-23T12:03:23;21.95;;;8.98;;
75488;SDS011;64069;46.396;48.102;2024-03-23T12:05:58;27.92;;;8.70;;
75488;SDS011;64069;46.396;48.102;2024-03-23T12:08:29;20.75;;;7.47;;
75488;SDS011;64069;46.396;48.102;2024-03-23T12:11:06;20.80;;;7.30;;
75488;SDS011;64069;46.396;48.102;2024-03-23T12:13:43;22.75;;;7.65;;
75488;SDS011;64069;46.396;48.102;2024-03-23T12:16:17;18.27;;;7.18;;
75488;SDS011;64069;46.396;48.102;2024-03-23T12:18:48;17.98;;;8.30;;
75488;SDS011;64069;46.396;48.102;2024-03-23T12:21:16;20.45;;;8.27;;
75488;SDS011;64069;46.396;48.102;2024-03-23T12:23:43;24.17;;;8.32;;
75488;SDS011;64069;46.396;48.102;2024-03-23T12:26:10;18.90;;;7.57;;
75488;SDS011;64069;46.396;48.102;2024-03-23T12:28:37;18.80;;;7.05;;
75488;SDS011;64069;46.396;48.102;2024-03-23T12:31:04;17.73;;;7.82;;
75488;SDS011;64069;46.396;48.102;2024-03-23T12:33:31;21.10;;;7.65;;
75488;SDS011;64069;46.396;48.102;2024-03-23T12:35:57;20.17;;;8.02;;
75488;SDS011;64069;46.396;48.102;2024-03-23T12:38:23;22.38;;;7.93;;
75488;SDS011;64069;46.396;48.102;2024-03-23T12:40:49;25.48;;;9.07;;
75488;SDS011;64069;46.396;48.102;2024-03-23T12:43:16;18.17;;;6.93;;
75488;SDS011;64069;46.396;48.102;2024-03-23T12:45:46;21.45;;;8.05;;
75488;SDS011;64069;46.396;48.102;2024-03-23T12:48:13;20.20;;;8.23;;
75488;SDS011;64069;46.396;48.102;2024-03-23T12:50:39;20.40;;;10.25;;
75488;SDS011;64069;46.396;48.102;2024-03-23T12:53:05;26.80;;;9.48;;
75488;SDS011;64069;46.396;48.102;2024-03-23T12:55:31;27.20;;;9.02;;
75488;SDS011;64069;46.396;48.102;2024-03-23T12:57:57;26.23;;;8.93;;
75488;SDS011;64069;46.396;48.102;2024-03-23T13:00:22;23.23;;;9.73;;
75488;SDS011;64069;46.396;48.102;2024-03-23T13:02:48;20.75;;;9.15;;
75488;SDS011;64069;46.396;48.102;2024-03-23T13:05:14;20.13;;;9.32;;
75488;SDS011;64069;46.396;48.102;2024-03-23T13:07:40;21.27;;;9.73;;
75488;SDS011;64069;46.396;48.102;2024-03-23T13:10:07;20.23;;;8.43;;
75488;SDS011;64069;46.396;48.102;2024-03-23T13:12:34;22.05;;;9.35;;
75488;SDS011;64069;46.396;48.102;2024-03-23T13:15:00;26.27;;;8.77;;
75488;SDS011;64069;46.396;48.102;2024-03-23T13:17:26;25.25;;;8.95;;
75488;SDS011;64069;46.396;48.102;2024-03-23T13:19:53;27.55;;;10.50;;
75488;SDS011;64069;46.396;48.102;2024-03-23T13:22:19;24.60;;;8.70;;
75488;SDS011;64069;46.396;48.102;2024-03-23T13:24:46;20.42;;;8.55;;
75488;SDS011;64069;46.396;48.102;2024-03-23T13:27:12;25.25;;;9.52;;
75488;SDS011;64069;46.396;48.102;2024-03-23T13:29:37;21.05;;;8.32;;
75488;SDS011;64069;46.396;48.102;2024-03-23T13:32:04;29.92;;;9.80;;
75488;SDS011;64069;46.396;48.102;2024-03-23T13:34:31;27.15;;;9.43;;
75488;SDS011;64069;46.396;48.102;2024-03-23T13:36:58;25.42;;;9.98;;
75488;SDS011;64069;46.396;48.102;2024-03-23T13:39:24;22.92;;;8.60;;
75488;SDS011;64069;46.396;48.102;2024-03-23T13:41:53;22.98;;;8.82;;
75488;SDS011;64069;46.396;48.102;2024-03-23T13:44:22;26.35;;;9.32;;
75488;SDS011;64069;46.396;48.102;2024-03-23T13:46:49;31.58;;;10.40;;
75488;SDS011;64069;46.396;48.102;2024-03-23T13:49:30;23.35;;;8.80;;
75488;SDS011;64069;46.396;48.102;2024-03-23T13:51:58;29.50;;;10.60;;
75488;SDS011;64069;46.396;48.102;2024-03-23T13:54:25;29.48;;;9.90;;
75488;SDS011;64069;46.396;48.102;2024-03-23T13:56:52;28.85;;;11.57;;
75488;SDS011;64069;46.396;48.102;2024-03-23T13:59:19;23.40;;;9.55;;
75488;SDS011;64069;46.396;48.102;2024-03-23T14:01:46;29.65;;;9.55;;
75488;SDS011;64069;46.396;48.102;2024-03-23T14:04:12;27.75;;;10.45;;
75488;SDS011;64069;46.396;48.102;2024-03-23T14:06:39;26.42;;;9.02;;
75488;SDS011;64069;46.396;48.102;2024-03-23T14:09:06;25.13;;;10.07;;
75488;SDS011;64069;46.396;48.102;2024-03-23T14:11:36;27.35;;;9.20;;
75488;SDS011;64069;46.396;48.102;2024-03-23T14:14:02;30.05;;;10.65;;
75488;SDS011;64069;46.396;48.102;2024-03-23T14:16:29;26.30;;;9.48;;
75488;SDS011;64069;46.396;48.102;2024-03-23T14:18:56;26.05;;;10.75;;
75488;SDS011;64069;46.396;48.102;2024-03-23T14:21:22;30.30;;;11.15;;
75488;SDS011;64069;46.396;48.102;2024-03-23T14:23:50;29.95;;;12.02;;
75488;SDS011;64069;46.396;48.102;2024-03-23T14:26:16;37.65;;;14.07;;
75488;SDS011;64069;46.396;48.102;2024-03-23T14:28:42;35.10;;;13.00;;
75488;SDS011;64069;46.396;48.102;2024-03-23T14:31:08;30.58;;;12.00;;
75488;SDS011;64069;46.396;48.102;2024-03-23T14:33:36;26.65;;;10.82;;
75488;SDS011;64069;46.396;48.102;2024-03-23T14:36:03;35.58;;;11.02;;
75488;SDS011;64069;46.396;48.102;2024-03-23T14:38:31;27.38;;;10.90;;
75488;SDS011;64069;46.396;48.102;2024-03-23T14:41:00;32.05;;;10.82;;
75488;SDS011;64069;46.396;48.102;2024-03-23T14:43:28;29.17;;;11.73;;
75488;SDS011;64069;46.396;48.102;2024-03-23T14:46:10;26.05;;;11.32;;
75488;SDS011;64069;46.396;48.102;2024-03-23T14:48:38;33.50;;;11.55;;
75488;SDS011;64069;46.396;48.102;2024-03-23T14:51:05;32.20;;;11.63;;
75488;SDS011;64069;46.396;48.102;2024-03-23T14:53:31;33.80;;;12.13;;
75488;SDS011;64069;46.396;48.102;2024-03-23T14:55:59;37.72;;;12.10;;
75488;SDS011;64069;46.396;48.102;2024-03-23T14:58:26;36.08;;;12.48;;
75488;SDS011;64069;46.396;48.102;2024-03-23T15:00:53;40.72;;;13.90;;
75488;SDS011;64069;46.396;48.102;2024-03-23T15:03:25;35.58;;;12.63;;
75488;SDS011;64069;46.396;48.102;2024-03-23T15:05:52;44.28;;;14.15;;
75488;SDS011;64069;46.396;48.102;2024-03-23T15:08:19;37.47;;;12.32;;
75488;SDS011;64069;46.396;48.102;2024-03-23T15:10:45;37.50;;;13.82;;
75488;SDS011;64069;46.396;48.102;2024-03-23T15:13:11;46.88;;;15.98;;
75488;SDS011;64069;46.396;48.102;2024-03-23T15:15:40;42.45;;;15.80;;
75488;SDS011;64069;46.396;48.102;2024-03-23T15:18:13;45.67;;;14.48;;
75488;SDS011;64069;46.396;48.102;2024-03-23T15:21:00;36.47;;;14.80;;
75488;SDS011;64069;46.396;48.102;2024-03-23T15:23:33;44.05;;;15.95;;